Time;durP1;ratioP1;P1;durP2;ratioP2;P2;SDS_P1;SDS_P2;PMS_P1;PMS_P2;Temp;Humidity;BMP_temperature;BMP_pressure;BME280_temperature;BME280_humidity;BME280_pressure;Samples;Min_cycle;Max_cycle;Signal;HPM_P1;HPM_P2
2022/03/04 00:20:46;;;;;;;22.58;17.25;;;;;;;;;;5150611;27;20097;-66
2022/03/04 00:23:12;;;;;;;22.85;17.23;;;;;;;;;;5178806;27;20104;-65
2022/03/04 00:25:38;;;;;;;24.98;17.95;;;;;;;;;;5180650;27;20071;-66
2022/03/04 00:28:04;;;;;;;24.42;17.08;;;;;;;;;;5180915;27;20396;-66
2022/03/04 00:30:30;;;;;;;21.33;15.40;;;;;;;;;;5161492;27;20135;-66
2022/03/04 00:32:55;;;;;;;25.25;16.52;;;;;;;;;;5180746;27;20084;-66
2022/03/04 00:35:21;;;;;;;24.77;16.83;;;;;;;;;;5180634;27;20193;-65
2022/03/04 00:37:47;;;;;;;23.45;16.45;;;;;;;;;;5180632;27;20112;-63
2022/03/04 00:40:14;;;;;;;24.90;15.75;;;;;;;;;;5180712;27;20176;-61
2022/03/04 00:42:40;;;;;;;27.62;17.62;;;;;;;;;;5180427;27;20513;-63
2022/03/04 00:45:06;;;;;;;22.98;16.37;;;;;;;;;;5180691;27;20082;-61
2022/03/04 00:47:33;;;;;;;24.45;17.15;;;;;;;;;;5180483;27;20073;-63
2022/03/04 00:50:01;;;;;;;23.52;15.55;;;;;;;;;;5180812;27;20073;-63
2022/03/04 00:52:28;;;;;;;22.02;15.48;;;;;;;;;;5200701;27;20058;-62
2022/03/04 00:54:54;;;;;;;23.42;16.05;;;;;;;;;;5182781;27;20062;-63
2022/03/04 00:57:20;;;;;;;20.48;14.25;;;;;;;;;;5182491;27;20119;-63
2022/03/04 00:59:46;;;;;;;20.83;15.48;;;;;;;;;;5201972;27;20168;-60
2022/03/04 01:02:12;;;;;;;22.42;15.55;;;;;;;;;;5202130;27;20090;-61
2022/03/04 01:04:38;;;;;;;25.45;15.95;;;;;;;;;;5201546;27;20090;-61
2022/03/04 01:07:04;;;;;;;20.27;15.15;;;;;;;;;;5201816;27;20472;-62
2022/03/04 01:09:31;;;;;;;21.75;16.42;;;;;;;;;;5201390;27;20070;-61
2022/03/04 01:11:57;;;;;;;22.67;17.17;;;;;;;;;;5201829;27;20066;-64
2022/03/04 01:14:23;;;;;;;26.33;17.00;;;;;;;;;;5182172;27;20069;-64
2022/03/04 01:16:49;;;;;;;24.60;17.40;;;;;;;;;;5201966;27;20069;-64
2022/03/04 01:19:15;;;;;;;24.20;17.12;;;;;;;;;;5201484;27;20487;-64
2022/03/04 01:21:41;;;;;;;25.77;17.30;;;;;;;;;;5201418;27;20156;-67
2022/03/04 01:24:07;;;;;;;24.83;17.83;;;;;;;;;;5201332;27;20069;-67
2022/03/04 01:26:33;;;;;;;23.17;16.23;;;;;;;;;;5165221;27;20476;-67
2022/03/04 01:28:59;;;;;;;23.70;17.25;;;;;;;;;;5182090;27;20082;-68
2022/03/04 01:31:25;;;;;;;24.33;18.02;;;;;;;;;;5182108;27;20085;-67
2022/03/04 01:33:51;;;;;;;23.75;16.95;;;;;;;;;;5201331;27;20109;-67
2022/03/04 01:36:17;;;;;;;25.92;16.85;;;;;;;;;;5182281;27;20113;-67
2022/03/04 01:38:43;;;;;;;24.42;17.87;;;;;;;;;;5182199;27;20100;-67
2022/03/04 01:41:10;;;;;;;28.48;20.25;;;;;;;;;;5182435;27;20089;-67
2022/03/04 01:43:35;;;;;;;22.25;16.30;;;;;;;;;;5201209;27;20085;-67
2022/03/04 01:46:11;;;;;;;25.00;18.27;;;;;;;;;;5199670;27;20464;-68
2022/03/04 01:48:38;;;;;;;24.63;18.12;;;;;;;;;;5182174;27;20057;-67
2022/03/04 01:51:04;;;;;;;27.10;18.75;;;;;;;;;;5181803;27;20489;-67
2022/03/04 01:53:30;;;;;;;26.73;18.48;;;;;;;;;;5201227;27;20156;-67
2022/03/04 01:55:56;;;;;;;25.73;18.45;;;;;;;;;;5201517;27;20161;-67
2022/03/04 01:58:22;;;;;;;31.98;20.02;;;;;;;;;;5201096;27;20100;-67
2022/03/04 02:00:47;;;;;;;39.58;19.98;;;;;;;;;;5201068;27;20089;-65
2022/03/04 02:03:13;;;;;;;39.63;23.48;;;;;;;;;;5201265;27;20070;-68
2022/03/04 02:05:39;;;;;;;37.28;21.27;;;;;;;;;;5200610;27;20180;-67
2022/03/04 02:08:06;;;;;;;35.28;21.92;;;;;;;;;;5201012;27;20090;-67
2022/03/04 02:10:32;;;;;;;33.95;22.35;;;;;;;;;;5201031;27;20440;-67
2022/03/04 02:12:58;;;;;;;30.58;21.45;;;;;;;;;;5182170;27;20090;-67
2022/03/04 02:15:24;;;;;;;38.33;24.08;;;;;;;;;;5182253;27;20172;-67
2022/03/04 02:17:50;;;;;;;39.90;23.38;;;;;;;;;;5181708;27;20098;-67
2022/03/04 02:20:20;;;;;;;34.42;23.45;;;;;;;;;;5201176;27;20099;-67
2022/03/04 02:22:46;;;;;;;40.45;27.25;;;;;;;;;;5181654;27;20085;-67
2022/03/04 02:25:12;;;;;;;47.35;34.38;;;;;;;;;;5200983;27;20061;-67
2022/03/04 02:27:38;;;;;;;47.33;34.80;;;;;;;;;;5201093;27;20093;-68
2022/03/04 02:30:05;;;;;;;50.72;36.20;;;;;;;;;;5200913;27;20069;-67
2022/03/04 02:32:31;;;;;;;52.95;39.58;;;;;;;;;;5200938;27;20117;-65
2022/03/04 02:34:57;;;;;;;55.60;39.45;;;;;;;;;;5181582;27;20515;-66
2022/03/04 02:37:24;;;;;;;51.85;39.30;;;;;;;;;;5200929;27;20405;-64
2022/03/04 02:39:51;;;;;;;55.90;43.17;;;;;;;;;;5200886;27;20066;-64
2022/03/04 02:42:17;;;;;;;58.28;45.33;;;;;;;;;;5201138;27;20066;-65
2022/03/04 02:44:43;;;;;;;61.47;49.47;;;;;;;;;;5181824;27;20072;-65
2022/03/04 02:47:09;;;;;;;73.45;56.22;;;;;;;;;;5182055;27;20103;-65
2022/03/04 02:49:35;;;;;;;78.60;57.67;;;;;;;;;;5201032;27;20085;-65
2022/03/04 02:52:01;;;;;;;82.35;60.53;;;;;;;;;;5201455;27;20077;-65
2022/03/04 02:54:27;;;;;;;84.80;62.10;;;;;;;;;;5201350;27;20185;-65
2022/03/04 02:56:53;;;;;;;81.28;62.65;;;;;;;;;;5200956;27;20587;-66
2022/03/04 02:59:19;;;;;;;84.72;64.07;;;;;;;;;;5201181;27;20486;-64
2022/03/04 03:01:45;;;;;;;86.80;65.55;;;;;;;;;;5200779;27;20088;-65
2022/03/04 03:04:11;;;;;;;83.25;64.15;;;;;;;;;;5200748;27;20168;-63
2022/03/04 03:06:37;;;;;;;75.10;62.53;;;;;;;;;;5200773;27;20472;-66
2022/03/04 03:09:03;;;;;;;80.00;64.10;;;;;;;;;;5200795;27;20170;-66
2022/03/04 03:11:29;;;;;;;79.18;61.90;;;;;;;;;;5200697;27;20520;-66
2022/03/04 03:13:55;;;;;;;77.35;58.40;;;;;;;;;;5200616;27;20073;-66
2022/03/04 03:16:21;;;;;;;75.40;56.20;;;;;;;;;;5200754;27;20081;-66
2022/03/04 03:18:47;;;;;;;71.25;50.17;;;;;;;;;;5200716;27;20520;-67
2022/03/04 03:21:13;;;;;;;68.25;45.53;;;;;;;;;;5181467;27;20093;-65
2022/03/04 03:23:39;;;;;;;61.28;41.70;;;;;;;;;;5200116;27;20437;-64
2022/03/04 03:26:05;;;;;;;54.58;37.88;;;;;;;;;;5181505;27;20060;-66
2022/03/04 03:28:31;;;;;;;49.08;33.80;;;;;;;;;;5200508;27;20194;-77
2022/03/04 03:30:57;;;;;;;50.75;31.20;;;;;;;;;;5200140;27;20492;-64
2022/03/04 03:33:23;;;;;;;37.72;24.25;;;;;;;;;;5200541;27;20428;-64
2022/03/04 03:35:54;;;;;;;34.55;23.67;;;;;;;;;;5200776;27;20092;-62
2022/03/04 03:38:24;;;;;;;43.92;33.08;;;;;;;;;;5182123;27;20066;-66
2022/03/04 03:40:50;;;;;;;56.90;44.00;;;;;;;;;;5181573;27;20097;-68
2022/03/04 03:43:16;;;;;;;60.78;48.92;;;;;;;;;;5181185;27;20081;-67
2022/03/04 03:45:42;;;;;;;62.17;49.70;;;;;;;;;;5200680;27;20156;-67
2022/03/04 03:48:09;;;;;;;71.93;54.72;;;;;;;;;;5200295;27;20176;-67
2022/03/04 03:50:38;;;;;;;66.85;51.37;;;;;;;;;;5181226;27;20078;-64
2022/03/04 03:53:05;;;;;;;66.30;50.80;;;;;;;;;;5200153;27;20489;-64
2022/03/04 03:55:32;;;;;;;73.18;57.08;;;;;;;;;;5181095;27;20077;-66
2022/03/04 03:57:58;;;;;;;74.93;57.35;;;;;;;;;;5200960;27;20081;-62
2022/03/04 04:00:24;;;;;;;72.87;54.53;;;;;;;;;;5200010;27;20180;-62
2022/03/04 04:02:50;;;;;;;88.60;54.22;;;;;;;;;;5200459;27;20069;-62
2022/03/04 04:05:16;;;;;;;89.07;56.45;;;;;;;;;;5200410;27;20149;-62
2022/03/04 04:07:43;;;;;;;86.87;54.65;;;;;;;;;;5200311;27;20082;-62
2022/03/04 04:10:10;;;;;;;87.53;53.83;;;;;;;;;;5200609;27;20164;-63
2022/03/04 04:12:36;;;;;;;82.70;52.00;;;;;;;;;;5180730;27;20113;-61
2022/03/04 04:15:02;;;;;;;79.53;53.05;;;;;;;;;;5198994;27;20085;-61
2022/03/04 04:17:28;;;;;;;73.93;50.47;;;;;;;;;;5162281;27;20109;-61
2022/03/04 04:19:54;;;;;;;72.68;50.58;;;;;;;;;;5198914;27;20093;-61
2022/03/04 04:22:21;;;;;;;66.07;49.97;;;;;;;;;;5180333;27;20099;-61
2022/03/04 04:24:47;;;;;;;64.93;50.67;;;;;;;;;;5180357;27;20101;-61
2022/03/04 04:27:13;;;;;;;66.62;51.40;;;;;;;;;;5200051;27;20187;-62
2022/03/04 04:29:39;;;;;;;66.87;52.00;;;;;;;;;;5199023;27;20093;-61
2022/03/04 04:32:05;;;;;;;61.05;48.08;;;;;;;;;;5198710;27;20174;-62
2022/03/04 04:34:31;;;;;;;62.33;49.50;;;;;;;;;;5198693;27;20520;-62
2022/03/04 04:36:57;;;;;;;64.90;48.92;;;;;;;;;;5199915;27;20497;-61
2022/03/04 04:39:23;;;;;;;67.32;47.50;;;;;;;;;;5200492;27;20097;-60
2022/03/04 04:41:49;;;;;;;75.97;52.08;;;;;;;;;;5200308;27;20081;-62
2022/03/04 04:44:15;;;;;;;75.57;51.55;;;;;;;;;;5200256;27;20171;-62
2022/03/04 04:46:41;;;;;;;76.50;49.90;;;;;;;;;;5200327;27;20387;-62
2022/03/04 04:49:07;;;;;;;69.57;47.67;;;;;;;;;;5200457;27;20154;-60
2022/03/04 04:51:33;;;;;;;39.40;27.65;;;;;;;;;;5200308;27;20404;-61
2022/03/04 04:53:59;;;;;;;39.65;23.05;;;;;;;;;;5200222;27;20084;-62
2022/03/04 04:56:25;;;;;;;31.92;22.87;;;;;;;;;;5200230;27;20078;-62
2022/03/04 04:58:51;;;;;;;17.10;14.40;;;;;;;;;;5200272;27;20591;-61
2022/03/04 05:01:17;;;;;;;19.33;14.82;;;;;;;;;;5200067;27;20173;-60
2022/03/04 05:03:44;;;;;;;24.08;16.65;;;;;;;;;;5181952;27;20159;-62
2022/03/04 05:06:10;;;;;;;18.33;15.07;;;;;;;;;;5201456;27;20145;-62
2022/03/04 05:08:36;;;;;;;22.08;17.00;;;;;;;;;;5201604;27;20167;-63
2022/03/04 05:11:02;;;;;;;17.70;14.77;;;;;;;;;;5201300;27;20497;-62
2022/03/04 05:13:28;;;;;;;19.70;15.55;;;;;;;;;;5182236;27;20089;-61
2022/03/04 05:15:54;;;;;;;14.85;12.98;;;;;;;;;;5182027;27;20184;-60
2022/03/04 05:18:20;;;;;;;14.15;12.55;;;;;;;;;;5201513;27;20190;-63
2022/03/04 05:20:45;;;;;;;14.60;11.88;;;;;;;;;;5201632;27;20504;-62
2022/03/04 05:23:58;;;;;;;15.88;13.13;;;;;;;;;;5201584;27;20544;-62
2022/03/04 05:25:58;;;;;;;16.98;14.48;;;;;;;;;;5201298;27;20077;-62
2022/03/04 05:28:24;;;;;;;19.55;17.55;;;;;;;;;;5201379;27;20074;-61
2022/03/04 05:30:50;;;;;;;20.17;17.52;;;;;;;;;;5201278;27;20092;-62
2022/03/04 05:33:16;;;;;;;18.20;16.27;;;;;;;;;;5201371;27;20200;-62
2022/03/04 05:35:41;;;;;;;18.62;16.10;;;;;;;;;;5201232;27;20516;-62
2022/03/04 05:38:07;;;;;;;15.75;14.05;;;;;;;;;;5201583;27;20501;-61
2022/03/04 05:40:33;;;;;;;16.98;14.55;;;;;;;;;;5201524;27;20096;-62
2022/03/04 05:42:59;;;;;;;19.15;14.45;;;;;;;;;;5182212;27;20177;-61
2022/03/04 05:45:25;;;;;;;17.45;14.27;;;;;;;;;;5199727;27;20177;-61
2022/03/04 05:47:51;;;;;;;21.10;15.35;;;;;;;;;;5201347;27;20159;-61
2022/03/04 05:50:17;;;;;;;22.08;16.65;;;;;;;;;;5201127;27;20103;-61
2022/03/04 05:52:43;;;;;;;20.80;16.67;;;;;;;;;;5181722;27;20176;-61
2022/03/04 05:55:10;;;;;;;18.30;16.33;;;;;;;;;;5182141;27;20500;-61
2022/03/04 05:57:36;;;;;;;19.58;15.23;;;;;;;;;;5201062;27;20081;-62
2022/03/04 06:00:03;;;;;;;22.33;15.13;;;;;;;;;;5182024;27;20107;-61
2022/03/04 06:02:31;;;;;;;17.80;14.30;;;;;;;;;;5182018;27;20062;-61
2022/03/04 06:04:57;;;;;;;19.15;15.50;;;;;;;;;;5201134;27;20092;-62
2022/03/04 06:07:23;;;;;;;20.02;17.42;;;;;;;;;;5182088;27;20081;-62
2022/03/04 06:09:49;;;;;;;31.95;28.10;;;;;;;;;;5201052;27;20074;-61
2022/03/04 06:12:15;;;;;;;30.83;25.67;;;;;;;;;;5201087;27;20198;-62
2022/03/04 06:14:41;;;;;;;21.05;18.33;;;;;;;;;;5181420;27;20177;-62
2022/03/04 06:17:07;;;;;;;42.30;37.90;;;;;;;;;;5181945;27;20158;-62
2022/03/04 06:19:33;;;;;;;30.90;27.70;;;;;;;;;;5201330;27;20097;-62
2022/03/04 06:21:59;;;;;;;17.77;15.88;;;;;;;;;;5181756;27;20492;-62
2022/03/04 06:24:25;;;;;;;18.17;14.77;;;;;;;;;;5182075;27;20062;-62
2022/03/04 06:26:51;;;;;;;17.52;14.40;;;;;;;;;;5201282;27;20173;-61
2022/03/04 06:29:17;;;;;;;16.15;13.43;;;;;;;;;;5182133;27;20187;-62
2022/03/04 06:31:43;;;;;;;16.92;14.60;;;;;;;;;;5201139;27;20178;-62
2022/03/04 06:34:09;;;;;;;17.20;13.77;;;;;;;;;;5200964;27;20089;-62
2022/03/04 06:36:36;;;;;;;20.15;15.40;;;;;;;;;;5200884;27;20474;-62
2022/03/04 06:39:02;;;;;;;19.17;16.30;;;;;;;;;;5200981;27;20247;-63
2022/03/04 06:41:28;;;;;;;23.30;19.23;;;;;;;;;;5181573;27;20097;-63
2022/03/04 06:43:54;;;;;;;23.67;19.23;;;;;;;;;;5200977;27;20440;-63
2022/03/04 06:46:20;;;;;;;24.25;18.05;;;;;;;;;;5181509;27;20090;-62
2022/03/04 06:48:47;;;;;;;22.77;19.10;;;;;;;;;;5181865;27;20073;-62
2022/03/04 06:51:13;;;;;;;25.85;19.98;;;;;;;;;;5164406;27;20121;-62
2022/03/04 06:53:39;;;;;;;20.48;17.05;;;;;;;;;;5164096;27;20176;-62
2022/03/04 06:56:05;;;;;;;29.05;19.67;;;;;;;;;;5181771;27;20077;-62
2022/03/04 06:58:31;;;;;;;29.00;19.70;;;;;;;;;;5164281;27;20062;-62
2022/03/04 07:00:57;;;;;;;23.05;18.62;;;;;;;;;;5200744;27;20076;-61
2022/03/04 07:03:24;;;;;;;20.12;16.85;;;;;;;;;;5200861;27;20162;-62
2022/03/04 07:05:50;;;;;;;21.73;16.42;;;;;;;;;;5181648;27;20076;-61
2022/03/04 07:08:16;;;;;;;18.90;15.80;;;;;;;;;;5200809;27;20151;-61
2022/03/04 07:10:43;;;;;;;19.25;15.02;;;;;;;;;;5163691;27;20077;-61
2022/03/04 07:13:10;;;;;;;20.25;14.95;;;;;;;;;;5200643;27;20075;-62
2022/03/04 07:15:36;;;;;;;16.83;14.55;;;;;;;;;;5200507;27;20172;-62
2022/03/04 07:18:02;;;;;;;17.80;14.52;;;;;;;;;;5200736;27;20089;-62
2022/03/04 07:20:28;;;;;;;19.25;13.18;;;;;;;;;;5164292;27;20101;-62
2022/03/04 07:22:54;;;;;;;20.80;15.65;;;;;;;;;;5200946;27;20073;-62
2022/03/04 07:25:20;;;;;;;20.67;15.05;;;;;;;;;;5181430;27;20520;-62
2022/03/04 07:27:46;;;;;;;18.55;13.10;;;;;;;;;;5200908;27;20107;-61
2022/03/04 07:30:15;;;;;;;14.82;12.68;;;;;;;;;;5200581;27;20097;-64
2022/03/04 07:32:41;;;;;;;20.88;13.02;;;;;;;;;;5200504;27;20086;-62
2022/03/04 07:35:08;;;;;;;21.55;16.20;;;;;;;;;;5181686;27;20086;-62
2022/03/04 07:37:35;;;;;;;20.27;14.55;;;;;;;;;;5200640;27;20176;-62
2022/03/04 07:40:05;;;;;;;17.33;11.98;;;;;;;;;;5200571;27;20089;-62
2022/03/04 07:42:31;;;;;;;18.90;12.98;;;;;;;;;;5163747;27;20113;-62
2022/03/04 07:44:57;;;;;;;17.73;11.85;;;;;;;;;;5181652;27;20081;-63
2022/03/04 07:47:23;;;;;;;12.57;10.40;;;;;;;;;;5200337;27;20097;-62
2022/03/04 07:49:49;;;;;;;19.87;14.05;;;;;;;;;;5200457;27;20192;-63
2022/03/04 07:52:15;;;;;;;14.48;11.35;;;;;;;;;;5200474;27;20090;-63
2022/03/04 07:54:42;;;;;;;13.52;10.30;;;;;;;;;;5200462;27;20160;-63
2022/03/04 07:57:08;;;;;;;12.73;10.27;;;;;;;;;;5200511;27;20539;-62
2022/03/04 07:59:34;;;;;;;12.15;10.02;;;;;;;;;;5181350;27;20179;-63
2022/03/04 08:02:00;;;;;;;11.45;9.75;;;;;;;;;;5200511;27;20081;-63
2022/03/04 08:04:26;;;;;;;12.73;10.25;;;;;;;;;;5200526;27;20073;-63
2022/03/04 08:06:52;;;;;;;15.10;10.55;;;;;;;;;;5181278;27;20475;-63
2022/03/04 08:09:18;;;;;;;15.15;10.82;;;;;;;;;;5200747;27;20074;-61
2022/03/04 08:11:46;;;;;;;14.38;11.23;;;;;;;;;;5200629;27;20066;-62
2022/03/04 08:14:12;;;;;;;14.50;10.98;;;;;;;;;;5200481;27;20084;-62
2022/03/04 08:16:38;;;;;;;15.15;10.80;;;;;;;;;;5164128;27;20078;-61
2022/03/04 08:19:05;;;;;;;15.70;11.57;;;;;;;;;;5181073;27;20082;-62
2022/03/04 08:21:31;;;;;;;12.40;10.57;;;;;;;;;;5181096;27;20078;-63
2022/03/04 08:23:57;;;;;;;14.10;10.65;;;;;;;;;;5181301;27;20184;-59
2022/03/04 08:26:23;;;;;;;16.95;11.05;;;;;;;;;;5163628;27;20066;-62
2022/03/04 08:28:49;;;;;;;15.65;11.40;;;;;;;;;;5200399;27;20070;-62
2022/03/04 08:31:16;;;;;;;13.98;11.27;;;;;;;;;;5198301;27;20161;-63
2022/03/04 08:33:43;;;;;;;13.13;10.48;;;;;;;;;;5200342;27;20402;-62
2022/03/04 08:36:09;;;;;;;13.57;10.27;;;;;;;;;;5181139;27;20085;-62
2022/03/04 08:38:35;;;;;;;12.25;10.30;;;;;;;;;;5200908;27;20101;-62
2022/03/04 08:41:02;;;;;;;10.88;9.75;;;;;;;;;;5182593;27;20176;-62
2022/03/04 08:43:28;;;;;;;12.90;9.98;;;;;;;;;;5201731;27;20181;-61
2022/03/04 08:45:54;;;;;;;12.43;10.35;;;;;;;;;;5182510;27;20093;-61
2022/03/04 08:48:20;;;;;;;12.13;10.13;;;;;;;;;;5201719;27;20081;-62
2022/03/04 08:50:46;;;;;;;13.00;10.13;;;;;;;;;;5182211;27;20085;-61
2022/03/04 08:53:12;;;;;;;10.80;9.23;;;;;;;;;;5199753;27;20183;-63
2022/03/04 08:55:41;;;;;;;11.07;9.77;;;;;;;;;;5164603;27;20082;-64
2022/03/04 08:58:07;;;;;;;12.43;9.23;;;;;;;;;;5182326;27;20406;-63
2022/03/04 09:00:33;;;;;;;12.30;9.95;;;;;;;;;;5182121;27;20078;-63
2022/03/04 09:02:59;;;;;;;10.43;9.40;;;;;;;;;;5201776;27;20511;-64
2022/03/04 09:05:25;;;;;;;10.55;9.45;;;;;;;;;;5201920;27;20091;-63
2022/03/04 09:07:51;;;;;;;10.70;9.60;;;;;;;;;;5201523;27;20081;-63
2022/03/04 09:10:17;;;;;;;12.93;9.82;;;;;;;;;;5182331;27;20078;-63
2022/03/04 09:12:43;;;;;;;10.07;8.75;;;;;;;;;;5182086;27;20489;-63
2022/03/04 09:15:10;;;;;;;9.80;8.82;;;;;;;;;;5201547;27;20183;-64
2022/03/04 09:17:36;;;;;;;10.07;9.07;;;;;;;;;;5181745;27;20225;-63
2022/03/04 09:20:04;;;;;;;11.15;9.48;;;;;;;;;;5181991;27;20066;-63
2022/03/04 09:22:29;;;;;;;10.85;9.02;;;;;;;;;;5201258;27;20085;-62
2022/03/04 09:24:55;;;;;;;11.12;9.18;;;;;;;;;;5201239;27;20184;-63
2022/03/04 09:27:21;;;;;;;11.63;10.13;;;;;;;;;;5182059;27;20090;-64
2022/03/04 09:29:47;;;;;;;12.00;10.00;;;;;;;;;;5182138;27;20165;-63
2022/03/04 09:32:13;;;;;;;12.90;9.88;;;;;;;;;;5201196;27;20104;-63
2022/03/04 09:34:39;;;;;;;12.75;9.35;;;;;;;;;;5201258;27;20568;-63
2022/03/04 09:37:05;;;;;;;12.25;10.23;;;;;;;;;;5201174;27;20085;-63
2022/03/04 09:39:31;;;;;;;11.63;9.88;;;;;;;;;;5201680;27;20077;-63
2022/03/04 09:41:58;;;;;;;12.95;9.85;;;;;;;;;;5182172;27;20188;-63
2022/03/04 09:44:24;;;;;;;13.90;10.75;;;;;;;;;;5164432;27;20085;-64
2022/03/04 09:46:50;;;;;;;11.65;10.45;;;;;;;;;;5181700;27;20070;-63
2022/03/04 09:49:17;;;;;;;13.18;11.00;;;;;;;;;;5181862;27;20077;-63
2022/03/04 09:51:43;;;;;;;12.25;10.75;;;;;;;;;;5181193;27;20527;-63
2022/03/04 09:54:09;;;;;;;13.73;11.98;;;;;;;;;;5201257;27;20081;-62
2022/03/04 09:56:35;;;;;;;12.98;11.48;;;;;;;;;;5181999;27;20116;-63
2022/03/04 09:59:01;;;;;;;12.13;10.80;;;;;;;;;;5182072;27;20494;-63
2022/03/04 10:01:27;;;;;;;12.55;11.02;;;;;;;;;;5201099;27;20077;-64
2022/03/04 10:03:55;;;;;;;14.32;11.57;;;;;;;;;;5164252;27;20093;-64
2022/03/04 10:06:22;;;;;;;14.70;12.30;;;;;;;;;;5181914;27;20081;-63
2022/03/04 10:08:53;;;;;;;13.25;11.45;;;;;;;;;;5182017;27;20180;-64
2022/03/04 10:11:33;;;;;;;14.68;11.52;;;;;;;;;;5181750;27;20586;-63
2022/03/04 10:14:01;;;;;;;14.65;13.02;;;;;;;;;;5192495;27;20073;-62
2022/03/04 10:16:39;;;;;;;14.30;11.12;;;;;;;;;;5164814;27;20168;-63
2022/03/04 10:19:13;;;;;;;15.35;12.80;;;;;;;;;;5164388;27;20512;-62
2022/03/04 10:21:52;;;;;;;15.00;13.05;;;;;;;;;;5200938;27;20080;-63
2022/03/04 10:24:21;;;;;;;15.23;13.38;;;;;;;;;;5181399;27;20085;-64
2022/03/04 10:26:57;;;;;;;14.73;13.18;;;;;;;;;;5201072;27;20069;-62
2022/03/04 10:29:26;;;;;;;15.73;13.93;;;;;;;;;;5201370;27;20069;-62
2022/03/04 10:32:19;;;;;;;13.27;11.88;;;;;;;;;;5200692;27;20094;-61
2022/03/04 10:34:49;;;;;;;14.75;13.15;;;;;;;;;;5181707;27;20150;-63
2022/03/04 10:37:18;;;;;;;17.40;13.60;;;;;;;;;;5201147;27;20097;-64
2022/03/04 10:40:00;;;;;;;15.15;13.55;;;;;;;;;;5200761;27;20077;-63
2022/03/04 10:42:54;;;;;;;14.82;12.73;;;;;;;;;;5200673;27;20485;-64
2022/03/04 10:45:25;;;;;;;16.45;12.80;;;;;;;;;;5200932;27;20062;-65
2022/03/04 10:47:55;;;;;;;14.98;12.77;;;;;;;;;;5181619;27;20073;-65
2022/03/04 10:50:33;;;;;;;16.25;12.60;;;;;;;;;;5199861;27;20094;-64
2022/03/04 10:53:02;;;;;;;17.92;13.00;;;;;;;;;;5159660;27;20096;-65
2022/03/04 10:55:31;;;;;;;14.98;13.05;;;;;;;;;;5198137;27;20088;-62
2022/03/04 10:57:58;;;;;;;15.52;13.43;;;;;;;;;;5177921;27;20101;-63
2022/03/04 11:00:26;;;;;;;17.90;13.75;;;;;;;;;;5197345;27;20120;-63
2022/03/04 11:02:54;;;;;;;17.12;14.43;;;;;;;;;;5177662;27;20117;-63
2022/03/04 11:05:21;;;;;;;21.95;16.90;;;;;;;;;;5197115;27;20082;-63
2022/03/04 11:07:47;;;;;;;17.30;14.20;;;;;;;;;;5200862;27;20081;-63
2022/03/04 11:10:14;;;;;;;17.37;15.50;;;;;;;;;;5200774;27;20069;-62
2022/03/04 11:12:42;;;;;;;19.23;14.87;;;;;;;;;;5181370;27;20066;-62
2022/03/04 11:15:12;;;;;;;16.50;14.40;;;;;;;;;;5162306;27;20097;-62
2022/03/04 11:17:39;;;;;;;15.65;13.68;;;;;;;;;;5179566;27;20506;-62
2022/03/04 11:20:09;;;;;;;16.87;14.07;;;;;;;;;;5179603;27;20433;-62
2022/03/04 11:22:38;;;;;;;16.75;13.88;;;;;;;;;;5198842;27;20108;-62
2022/03/04 11:25:05;;;;;;;18.25;13.25;;;;;;;;;;5180087;27;20160;-62
2022/03/04 11:27:39;;;;;;;18.45;16.15;;;;;;;;;;5200691;27;20529;-62
2022/03/04 11:30:06;;;;;;;19.70;16.60;;;;;;;;;;5200666;27;20622;-62
2022/03/04 11:32:32;;;;;;;17.83;15.50;;;;;;;;;;5199652;27;20092;-63
2022/03/04 11:34:58;;;;;;;17.75;14.82;;;;;;;;;;5200941;27;20401;-63
2022/03/04 11:37:24;;;;;;;17.33;14.77;;;;;;;;;;5200764;27;20086;-64
2022/03/04 11:42:57;;;;;;;20.40;15.95;;;;;;;;;;5200783;27;20089;-65
2022/03/04 11:45:41;;;;;;;16.92;14.75;;;;;;;;;;5181429;27;20059;-65
2022/03/04 11:48:10;;;;;;;16.05;14.20;;;;;;;;;;5181526;27;20092;-65
2022/03/04 11:50:58;;;;;;;16.48;14.60;;;;;;;;;;5181061;27;20068;-65
2022/03/04 11:53:25;;;;;;;17.20;13.80;;;;;;;;;;5200547;27;20151;-65
2022/03/04 11:56:14;;;;;;;17.62;13.62;;;;;;;;;;5200461;27;20567;-65
2022/03/04 11:59:00;;;;;;;15.15;13.62;;;;;;;;;;5200571;27;20086;-62
2022/03/04 12:01:27;;;;;;;20.17;14.20;;;;;;;;;;5181656;27;20486;-62
2022/03/04 12:04:08;;;;;;;19.12;14.02;;;;;;;;;;5181404;27;20088;-63
2022/03/04 12:06:35;;;;;;;16.65;14.95;;;;;;;;;;5200289;27;20092;-63
2022/03/04 12:09:29;;;;;;;18.67;15.02;;;;;;;;;;5164171;27;20178;-62
2022/03/04 12:12:13;;;;;;;17.83;14.87;;;;;;;;;;5200311;27;20089;-65
2022/03/04 12:15:09;;;;;;;17.33;14.40;;;;;;;;;;5201733;27;20564;-64
2022/03/04 12:18:03;;;;;;;16.58;14.60;;;;;;;;;;5202348;27;20105;-64
2022/03/04 12:20:38;;;;;;;19.08;15.52;;;;;;;;;;5182533;27;20184;-64
2022/03/04 12:23:14;;;;;;;18.15;15.30;;;;;;;;;;5202051;27;20172;-64
2022/03/04 12:25:52;;;;;;;20.48;15.85;;;;;;;;;;5182570;27;20502;-64
2022/03/04 12:28:26;;;;;;;19.10;15.52;;;;;;;;;;5202079;27;20190;-64
2022/03/04 12:31:16;;;;;;;20.83;16.12;;;;;;;;;;5201726;27;20092;-65
2022/03/04 12:33:44;;;;;;;18.25;15.52;;;;;;;;;;5174879;27;20101;-63
2022/03/04 12:36:16;;;;;;;19.42;15.70;;;;;;;;;;5182266;27;20086;-63
2022/03/04 12:38:42;;;;;;;18.98;15.73;;;;;;;;;;5201863;27;20081;-66
2022/03/04 12:41:14;;;;;;;18.37;14.45;;;;;;;;;;5201725;27;20077;-63
2022/03/04 12:43:40;;;;;;;17.90;14.93;;;;;;;;;;5198983;27;20179;-62
2022/03/04 12:46:07;;;;;;;19.62;14.82;;;;;;;;;;5198347;27;20497;-64
2022/03/04 12:48:33;;;;;;;17.37;14.68;;;;;;;;;;5198499;27;20512;-65
2022/03/04 12:50:59;;;;;;;17.62;15.00;;;;;;;;;;5198228;27;20179;-65
2022/03/04 12:53:31;;;;;;;16.50;14.80;;;;;;;;;;5198534;27;20085;-63
2022/03/04 12:56:01;;;;;;;17.37;14.48;;;;;;;;;;5181810;27;20102;-62
2022/03/04 12:58:47;;;;;;;17.10;14.95;;;;;;;;;;5178851;27;20528;-62
2022/03/04 13:01:15;;;;;;;18.40;14.98;;;;;;;;;;5198259;27;20576;-62
2022/03/04 13:03:49;;;;;;;19.65;14.57;;;;;;;;;;5161417;27;20096;-63
2022/03/04 13:06:16;;;;;;;19.35;14.73;;;;;;;;;;5198306;27;20089;-62
2022/03/04 13:08:56;;;;;;;18.02;15.20;;;;;;;;;;5178961;27;20984;-62
2022/03/04 13:11:27;;;;;;;17.45;15.07;;;;;;;;;;5163938;27;20149;-62
2022/03/04 13:13:54;;;;;;;19.23;15.63;;;;;;;;;;5182266;27;20488;-62
2022/03/04 13:16:46;;;;;;;20.00;15.05;;;;;;;;;;5201389;27;20092;-62
2022/03/04 13:19:17;;;;;;;18.95;15.30;;;;;;;;;;5173492;27;20069;-60
2022/03/04 13:21:49;;;;;;;17.70;15.32;;;;;;;;;;5199631;27;20105;-64
2022/03/04 13:24:26;;;;;;;17.98;15.48;;;;;;;;;;5201020;27;20085;-62
2022/03/04 13:26:57;;;;;;;19.15;14.95;;;;;;;;;;5201380;27;20086;-62
2022/03/04 13:29:34;;;;;;;20.10;15.88;;;;;;;;;;5182218;27;20108;-66
2022/03/04 13:32:08;;;;;;;20.60;16.58;;;;;;;;;;5161267;27;20533;-63
2022/03/04 13:34:35;;;;;;;17.85;15.93;;;;;;;;;;5161147;27;20502;-66
2022/03/04 13:37:06;;;;;;;20.52;16.08;;;;;;;;;;5182541;27;20493;-63
2022/03/04 13:39:33;;;;;;;17.95;15.07;;;;;;;;;;5182446;27;20111;-63
2022/03/04 13:42:22;;;;;;;20.20;17.62;;;;;;;;;;5173585;27;20082;-61
2022/03/04 13:44:49;;;;;;;17.62;14.82;;;;;;;;;;5201312;27;20082;-66
2022/03/04 13:47:30;;;;;;;20.37;16.35;;;;;;;;;;5201389;27;20473;-63
2022/03/04 13:49:57;;;;;;;20.10;16.27;;;;;;;;;;5201217;27;20069;-62
2022/03/04 13:52:23;;;;;;;18.95;15.43;;;;;;;;;;5181851;27;20066;-61
2022/03/04 13:55:00;;;;;;;18.75;14.52;;;;;;;;;;5182044;27;20105;-58
2022/03/04 13:57:27;;;;;;;17.37;15.07;;;;;;;;;;5165038;27;20061;-63
2022/03/04 13:59:58;;;;;;;16.73;15.02;;;;;;;;;;5201256;27;20061;-64
2022/03/04 14:02:26;;;;;;;17.23;14.57;;;;;;;;;;5164839;27;20089;-61
2022/03/04 14:04:57;;;;;;;19.05;16.00;;;;;;;;;;5182196;27;20101;-63
2022/03/04 14:07:24;;;;;;;16.50;14.38;;;;;;;;;;5201058;27;20068;-64
2022/03/04 14:09:56;;;;;;;19.35;16.30;;;;;;;;;;5200992;27;20084;-63
2022/03/04 14:12:23;;;;;;;25.67;17.90;;;;;;;;;;5201364;27;20073;-63
2022/03/04 14:14:50;;;;;;;20.85;14.50;;;;;;;;;;5201388;27;20082;-64
2022/03/04 14:17:16;;;;;;;18.92;14.82;;;;;;;;;;5201068;27;20421;-64
2022/03/04 14:19:42;;;;;;;19.42;14.45;;;;;;;;;;5164182;27;20411;-64
2022/03/04 14:22:08;;;;;;;19.90;15.88;;;;;;;;;;5164295;27;20089;-63
2022/03/04 14:24:34;;;;;;;21.25;16.73;;;;;;;;;;5200813;27;20493;-63
2022/03/04 14:27:00;;;;;;;23.00;16.02;;;;;;;;;;5181667;27;20215;-63
2022/03/04 14:29:26;;;;;;;17.20;14.52;;;;;;;;;;5181547;27;20180;-63
2022/03/04 14:31:52;;;;;;;23.15;15.60;;;;;;;;;;5201176;27;20071;-64
2022/03/04 14:34:18;;;;;;;19.10;14.82;;;;;;;;;;5200882;27;20437;-63
2022/03/04 14:36:46;;;;;;;18.90;15.00;;;;;;;;;;5200526;27;20089;-63
2022/03/04 14:39:12;;;;;;;16.87;14.38;;;;;;;;;;5200619;27;20085;-64
2022/03/04 14:41:39;;;;;;;16.73;14.00;;;;;;;;;;5200398;27;20180;-63
2022/03/04 14:44:06;;;;;;;19.45;15.20;;;;;;;;;;5200742;27;20069;-63
2022/03/04 14:46:34;;;;;;;16.98;15.20;;;;;;;;;;5181486;27;20065;-64